createdAt,value
2018-11-25T00:00:50.525Z,90.57
2018-11-25T00:03:19.451Z,91.30
2018-11-25T00:05:47.204Z,92.70
2018-11-25T00:08:16.126Z,95.30
2018-11-25T00:10:44.449Z,95.13
2018-11-25T00:13:12.224Z,100.10
2018-11-25T00:15:41.140Z,99.13
2018-11-25T00:18:08.942Z,100.23
2018-11-25T00:20:37.858Z,100.90
2018-11-25T00:23:06.194Z,101.17
2018-11-25T00:25:34.769Z,108.73
2018-11-25T00:28:03.108Z,116.07
2018-11-25T00:30:30.954Z,118.23
2018-11-25T00:32:59.782Z,115.90
2018-11-25T00:35:29.061Z,113.07
2018-11-25T00:37:56.755Z,116.20
2018-11-25T00:40:24.523Z,116.77
2018-11-25T00:42:52.864Z,113.10
2018-11-25T00:45:21.785Z,112.83
2018-11-25T00:47:50.407Z,107.57
2018-11-25T00:50:18.729Z,98.83
2018-11-25T00:52:46.482Z,90.50
2018-11-25T00:55:15.389Z,86.60
2018-11-25T00:57:43.154Z,82.37
2018-11-25T01:00:11.481Z,73.63
2018-11-25T01:02:40.396Z,74.73
2018-11-25T01:05:08.297Z,80.97
2018-11-25T01:07:36.473Z,100.77
2018-11-25T01:10:05.393Z,101.73
2018-11-25T01:12:33.735Z,100.53
2018-11-25T01:15:02.698Z,99.53
2018-11-25T01:17:31.406Z,100.10
2018-11-25T01:19:59.562Z,95.80
2018-11-25T01:22:28.472Z,94.13
2018-11-25T01:24:56.798Z,91.63
2018-11-25T01:27:25.126Z,95.93
2018-11-25T01:29:52.877Z,95.07
2018-11-25T01:32:21.193Z,92.80
2018-11-25T01:34:50.109Z,92.87
2018-11-25T01:37:18.451Z,93.57
2018-11-25T01:39:46.189Z,97.53
2018-11-25T01:42:15.112Z,95.43
2018-11-25T01:44:43.439Z,93.57
2018-11-25T01:47:11.785Z,93.30
2018-11-25T01:49:40.125Z,92.63
2018-11-25T01:52:08.458Z,91.90
2018-11-25T01:54:36.210Z,86.00
2018-11-25T01:57:04.530Z,87.80
2018-11-25T01:59:32.862Z,87.97
2018-11-25T02:02:01.772Z,86.50
2018-11-25T02:04:29.518Z,81.13
2018-11-25T02:06:58.430Z,78.37
2018-11-25T02:09:26.185Z,78.83
2018-11-25T02:11:54.508Z,84.80
2018-11-25T02:14:22.833Z,82.20
2018-11-25T02:16:51.790Z,85.30
2018-11-25T02:19:19.538Z,79.77
2018-11-25T02:21:47.881Z,86.37
2018-11-25T02:24:16.786Z,87.27
2018-11-25T02:26:44.541Z,88.03
2018-11-25T02:29:13.451Z,79.07
2018-11-25T02:31:41.195Z,77.20
2018-11-25T02:34:10.105Z,73.30
2018-11-25T02:36:38.440Z,65.40
2018-11-25T02:39:06.190Z,66.10
2018-11-25T02:41:35.099Z,65.67
2018-11-25T02:44:02.849Z,67.17
2018-11-25T02:46:31.760Z,66.17
2018-11-25T02:48:59.512Z,60.70
2018-11-25T02:51:28.416Z,74.10
2018-11-25T02:53:56.177Z,81.23
2018-11-25T02:56:25.084Z,81.13
2018-11-25T02:58:53.407Z,80.67
2018-11-25T03:01:21.738Z,81.53
2018-11-25T03:03:49.488Z,84.63
2018-11-25T03:06:17.845Z,86.67
2018-11-25T03:08:46.175Z,74.70
2018-11-25T03:11:14.543Z,72.27
2018-11-25T03:13:42.825Z,60.47
2018-11-25T03:16:11.740Z,62.50
2018-11-25T03:18:40.102Z,57.20
2018-11-25T03:21:08.431Z,56.77
2018-11-25T03:23:36.752Z,58.83
2018-11-25T03:26:04.496Z,62.30
2018-11-25T03:28:32.832Z,63.63
2018-11-25T03:31:01.742Z,59.20
2018-11-25T03:33:29.489Z,57.47
2018-11-25T03:35:57.817Z,59.20
2018-11-25T03:38:26.160Z,57.77
2018-11-25T03:40:55.070Z,58.17
2018-11-25T03:43:23.410Z,58.37
2018-11-25T03:45:51.158Z,58.77
2018-11-25T03:48:19.487Z,72.63
2018-11-25T03:50:48.403Z,71.23
2018-11-25T03:53:16.153Z,72.10
2018-11-25T03:55:44.476Z,69.03
2018-11-25T03:58:13.382Z,70.63
2018-11-25T04:00:41.709Z,70.33
2018-11-25T04:03:09.454Z,68.17
2018-11-25T04:05:37.782Z,69.60
2018-11-25T04:08:06.688Z,66.93
2018-11-25T04:10:34.488Z,67.00
2018-11-25T04:13:03.352Z,63.03
2018-11-25T04:15:31.686Z,63.40
2018-11-25T04:17:59.418Z,64.83
2018-11-25T04:20:28.339Z,68.20
2018-11-25T04:22:56.090Z,68.50
2018-11-25T04:25:24.996Z,66.50
2018-11-25T04:27:52.746Z,66.53
2018-11-25T04:30:21.659Z,65.87
2018-11-25T04:32:49.406Z,60.37
2018-11-25T04:35:17.732Z,61.33
2018-11-25T04:37:46.056Z,52.30
2018-11-25T04:40:14.383Z,42.30
2018-11-25T04:42:43.282Z,39.70
2018-11-25T04:45:11.091Z,35.77
2018-11-25T04:47:39.352Z,35.50
2018-11-25T04:50:08.255Z,35.80
2018-11-25T04:52:36.587Z,35.97
2018-11-25T04:55:04.330Z,39.13
2018-11-25T04:57:33.226Z,48.63
2018-11-25T05:00:01.560Z,50.10
2018-11-25T05:02:29.880Z,52.40
2018-11-25T05:04:58.211Z,53.77
2018-11-25T05:07:25.951Z,55.77
2018-11-25T05:09:54.276Z,54.40
2018-11-25T05:12:22.604Z,49.27
2018-11-25T05:14:51.510Z,49.23
2018-11-25T05:17:19.238Z,51.90
2018-11-25T05:19:48.143Z,53.17
2018-11-25T05:22:16.491Z,53.97
2018-11-25T05:24:44.233Z,51.73
2018-11-25T05:27:13.137Z,51.43
2018-11-25T05:29:41.459Z,51.10
2018-11-25T05:32:09.785Z,47.97
2018-11-25T05:34:38.108Z,46.73
2018-11-25T05:37:06.430Z,45.17
2018-11-25T05:39:34.755Z,45.00
2018-11-25T05:42:03.079Z,46.27
2018-11-25T05:44:31.402Z,43.87
2018-11-25T05:46:59.727Z,45.37
2018-11-25T05:49:27.472Z,48.20
2018-11-25T05:51:55.794Z,48.47
2018-11-25T05:54:24.131Z,50.50
2018-11-25T05:56:53.369Z,53.30
2018-11-25T05:59:22.470Z,51.90
2018-11-25T06:01:50.206Z,54.00
2018-11-25T06:04:19.122Z,57.50
2018-11-25T06:06:46.870Z,61.73
2018-11-25T06:09:15.774Z,56.93
2018-11-25T06:11:44.102Z,57.20
2018-11-25T06:14:11.857Z,55.20
2018-11-25T06:16:40.755Z,56.27
2018-11-25T06:19:09.079Z,56.37
2018-11-25T06:21:37.622Z,55.53
2018-11-25T06:24:05.391Z,56.50
2018-11-25T06:26:34.560Z,54.37
2018-11-25T06:29:02.305Z,53.90
2018-11-25T06:31:31.206Z,53.03
2018-11-25T06:33:58.956Z,53.23
2018-11-25T06:36:27.273Z,56.30
2018-11-25T06:38:55.591Z,51.97
2018-11-25T06:41:23.922Z,54.17
2018-11-25T06:43:53.387Z,55.80
2018-11-25T06:46:21.491Z,55.23
2018-11-25T06:48:54.765Z,55.13
2018-11-25T06:51:17.564Z,55.93
2018-11-25T06:53:46.185Z,57.90
2018-11-25T06:56:14.225Z,59.57
2018-11-25T06:58:42.550Z,54.50
2018-11-25T07:01:11.467Z,62.23
2018-11-25T07:03:39.216Z,71.37
2018-11-25T07:06:07.541Z,55.63
2018-11-25T07:08:36.442Z,56.20
2018-11-25T07:11:05.099Z,59.13
2018-11-25T07:13:33.422Z,58.90
2018-11-25T07:16:01.172Z,63.97
2018-11-25T07:18:29.502Z,63.37
2018-11-25T07:20:58.714Z,62.13
2018-11-25T07:23:27.313Z,61.43
2018-11-25T07:25:55.080Z,61.07
2018-11-25T07:28:23.982Z,55.47
2018-11-25T07:30:51.728Z,59.03
2018-11-25T07:33:20.049Z,54.50
2018-11-25T07:35:48.376Z,61.57
2018-11-25T07:38:16.737Z,68.17
2018-11-25T07:40:45.053Z,70.27
2018-11-25T07:43:13.381Z,68.03
2018-11-25T07:45:41.715Z,64.90
2018-11-25T07:48:10.043Z,60.00
2018-11-25T07:50:38.951Z,59.93
2018-11-25T07:53:07.469Z,62.10
2018-11-25T07:55:35.610Z,77.73
2018-11-25T07:58:04.529Z,85.50
2018-11-25T08:00:32.283Z,91.40
2018-11-25T08:03:00.620Z,95.77
2018-11-25T08:05:30.121Z,82.27
2018-11-25T08:07:58.449Z,79.67
2018-11-25T08:10:26.786Z,71.00
2018-11-25T08:12:56.426Z,71.40
2018-11-25T08:15:23.458Z,69.23
2018-11-25T08:17:52.369Z,65.10
2018-11-25T08:20:20.117Z,60.83
2018-11-25T08:22:49.033Z,61.17
2018-11-25T08:25:16.790Z,62.27
2018-11-25T08:27:45.740Z,59.40
2018-11-25T08:30:15.054Z,64.60
2018-11-25T08:32:42.627Z,75.07
2018-11-25T08:35:10.976Z,87.80
2018-11-25T08:37:38.721Z,89.20
2018-11-25T08:40:07.052Z,99.60
2018-11-25T08:42:36.338Z,89.03
2018-11-25T08:45:05.244Z,87.00
2018-11-25T08:47:33.002Z,87.40
2018-11-25T08:50:01.331Z,88.00
2018-11-25T08:52:29.682Z,122.23
2018-11-25T08:54:58.607Z,106.73
2018-11-25T08:57:27.107Z,90.87
2018-11-25T08:59:55.440Z,95.03
2018-11-25T09:02:23.189Z,97.63
2018-11-25T09:04:51.517Z,97.80
2018-11-25T09:07:19.914Z,98.33
2018-11-25T09:09:48.271Z,101.87
2018-11-25T09:12:17.191Z,97.37
2018-11-25T09:14:45.541Z,98.30
2018-11-25T09:17:13.298Z,102.97
2018-11-25T09:19:42.230Z,109.23
2018-11-25T09:22:09.983Z,107.23
2018-11-25T09:24:38.942Z,104.23
2018-11-25T09:27:06.702Z,103.53
2018-11-25T09:29:36.127Z,99.40
2018-11-25T09:32:04.843Z,96.73
2018-11-25T09:34:33.478Z,94.90
2018-11-25T09:37:01.005Z,96.43
2018-11-25T09:39:29.462Z,93.17
2018-11-25T09:41:58.684Z,117.53
2018-11-25T09:44:27.073Z,100.30
2018-11-25T09:46:54.832Z,102.10
2018-11-25T09:49:23.749Z,116.23
2018-11-25T09:51:52.091Z,115.63
2018-11-25T09:54:19.846Z,105.30
2018-11-25T09:56:48.770Z,114.50
2018-11-25T09:59:17.105Z,123.83
2018-11-25T10:01:45.442Z,104.07
2018-11-25T10:04:13.802Z,101.93
2018-11-25T10:06:42.464Z,101.10
2018-11-25T10:09:10.237Z,108.07
2018-11-25T10:11:39.274Z,106.20
2018-11-25T10:14:07.608Z,99.47
2018-11-25T10:16:35.794Z,103.93
2018-11-25T10:19:04.133Z,87.50
2018-11-25T10:21:33.043Z,86.90
2018-11-25T10:24:01.800Z,81.93
2018-11-25T10:26:30.140Z,82.40
2018-11-25T10:28:57.906Z,83.23
2018-11-25T10:31:26.451Z,83.20
2018-11-25T10:33:55.363Z,86.37
2018-11-25T10:36:23.692Z,93.33
2018-11-25T10:38:52.023Z,89.23
2018-11-25T10:41:20.407Z,82.73
2018-11-25T10:43:48.202Z,82.07
2018-11-25T10:46:17.160Z,77.90
2018-11-25T10:48:45.505Z,65.33
2018-11-25T10:51:14.301Z,82.70
2018-11-25T10:53:42.692Z,95.33
2018-11-25T10:56:11.068Z,63.67
2018-11-25T10:58:39.655Z,72.50
2018-11-25T11:01:08.422Z,75.53
2018-11-25T11:03:36.826Z,67.83
2018-11-25T11:06:04.698Z,66.63
2018-11-25T11:08:33.803Z,60.93
2018-11-25T11:11:02.251Z,66.97
2018-11-25T11:13:31.041Z,68.53
2018-11-25T11:15:59.823Z,71.30
2018-11-25T11:18:28.241Z,69.20
2018-11-25T11:20:56.679Z,67.63
2018-11-25T11:23:25.392Z,66.30
2018-11-25T11:25:53.711Z,56.20
2018-11-25T11:28:22.068Z,50.13
2018-11-25T11:30:50.404Z,53.03
2018-11-25T11:33:18.964Z,54.13
2018-11-25T11:35:47.292Z,50.70
2018-11-25T11:38:15.629Z,48.07
2018-11-25T11:40:43.950Z,40.33
2018-11-25T11:43:11.693Z,40.90
2018-11-25T11:45:40.029Z,42.43
2018-11-25T11:48:08.433Z,59.23
2018-11-25T11:50:37.341Z,50.50
2018-11-25T11:53:05.799Z,40.83
2018-11-25T11:55:34.170Z,38.40
2018-11-25T11:58:02.776Z,37.27
2018-11-25T12:00:30.293Z,77.00
2018-11-25T12:02:59.230Z,42.27
2018-11-25T12:05:28.757Z,43.13
2018-11-25T12:07:57.205Z,48.03
2018-11-25T12:10:26.438Z,37.83
2018-11-25T12:12:54.664Z,40.80
2018-11-25T12:15:29.967Z,48.83
2018-11-25T12:17:52.968Z,40.67
2018-11-25T12:20:21.670Z,39.10
2018-11-25T12:22:50.706Z,38.43
2018-11-25T12:25:18.527Z,35.77
2018-11-25T12:27:47.430Z,33.63
2018-11-25T12:30:16.034Z,34.93
2018-11-25T12:32:44.366Z,38.13
2018-11-25T12:35:12.134Z,40.03
2018-11-25T12:37:41.091Z,45.97
2018-11-25T12:40:08.901Z,46.73
2018-11-25T12:42:37.953Z,49.37
2018-11-25T12:45:06.699Z,53.17
2018-11-25T12:47:35.182Z,53.00
2018-11-25T12:50:03.531Z,52.27
2018-11-25T12:52:31.932Z,51.77
2018-11-25T12:55:00.341Z,49.43
2018-11-25T12:57:28.383Z,46.43
2018-11-25T12:59:56.448Z,44.87
2018-11-25T13:02:25.559Z,40.07
2018-11-25T13:04:53.914Z,43.27
2018-11-25T13:07:22.238Z,51.30
2018-11-25T13:09:50.597Z,51.97
2018-11-25T13:12:18.361Z,52.23
2018-11-25T13:14:47.270Z,56.43
2018-11-25T13:17:16.387Z,52.90
2018-11-25T13:19:44.950Z,44.33
2018-11-25T13:22:13.497Z,46.13
2018-11-25T13:24:41.737Z,45.10
2018-11-25T13:27:10.176Z,43.97
2018-11-25T13:29:38.531Z,53.67
2018-11-25T13:32:06.978Z,118.20
2018-11-25T13:34:35.319Z,40.17
2018-11-25T13:40:02.389Z,33.93
2018-11-25T13:42:30.810Z,35.13
2018-11-25T13:44:58.659Z,30.43
2018-11-25T13:47:26.993Z,26.83
2018-11-25T13:49:55.316Z,31.70
2018-11-25T13:52:23.954Z,32.67
2018-11-25T13:54:52.340Z,27.00
2018-11-25T13:57:20.774Z,29.37
2018-11-25T13:59:48.552Z,33.83
2018-11-25T14:02:17.574Z,34.50
2018-11-25T14:04:46.452Z,34.60
2018-11-25T14:07:14.804Z,36.47
2018-11-25T14:09:43.243Z,31.37
2018-11-25T14:12:10.990Z,28.00
2018-11-25T14:14:40.347Z,28.20
2018-11-25T14:17:08.667Z,30.20
2018-11-25T14:19:37.020Z,32.50
2018-11-25T14:22:05.577Z,32.97
2018-11-25T14:24:33.942Z,31.27
2018-11-25T14:27:02.333Z,33.67
2018-11-25T14:29:30.671Z,37.10
2018-11-25T14:31:59.228Z,32.27
2018-11-25T14:34:27.603Z,65.57
2018-11-25T14:36:55.390Z,32.90
2018-11-25T14:39:23.727Z,27.23
2018-11-25T14:41:52.625Z,30.63
2018-11-25T14:44:20.510Z,78.67
2018-11-25T14:46:50.357Z,53.43
2018-11-25T14:49:18.100Z,38.13
2018-11-25T14:51:47.010Z,37.23
2018-11-25T14:54:15.467Z,40.77
2018-11-25T14:56:44.279Z,41.93
2018-11-25T14:59:13.000Z,44.80
2018-11-25T15:01:41.332Z,45.13
2018-11-25T15:04:09.982Z,47.60
2018-11-25T15:06:38.443Z,52.47
2018-11-25T15:09:06.834Z,56.33
2018-11-25T15:11:35.524Z,51.87
2018-11-25T15:14:03.851Z,53.40
2018-11-25T15:16:32.178Z,58.53
2018-11-25T15:19:00.655Z,58.43
2018-11-25T15:21:29.486Z,61.53
2018-11-25T15:23:57.264Z,57.93
2018-11-25T15:26:26.292Z,75.17
2018-11-25T15:28:54.718Z,93.63
2018-11-25T15:31:23.117Z,62.73
2018-11-25T15:33:51.777Z,71.77
2018-11-25T15:36:20.113Z,76.80
2018-11-25T15:38:47.882Z,75.57
2018-11-25T15:41:17.494Z,74.20
2018-11-25T15:43:45.881Z,72.70
2018-11-25T15:46:15.218Z,60.70
2018-11-25T15:48:43.583Z,59.40
2018-11-25T15:51:11.110Z,51.33
2018-11-25T15:53:40.064Z,45.47
2018-11-25T15:56:08.402Z,43.20
2018-11-25T15:58:36.757Z,44.13
2018-11-25T16:01:05.383Z,42.70
2018-11-25T16:03:33.754Z,43.60
2018-11-25T16:06:02.069Z,64.97
2018-11-25T16:08:37.689Z,39.50
2018-11-25T16:10:58.797Z,34.17
2018-11-25T16:13:26.547Z,33.93
2018-11-25T16:15:55.829Z,35.90
2018-11-25T16:18:24.250Z,37.23
2018-11-25T16:20:52.552Z,42.13
2018-11-25T16:23:20.890Z,38.70
2018-11-25T16:25:49.367Z,40.73
2018-11-25T16:28:17.925Z,37.97
2018-11-25T16:30:46.260Z,40.73
2018-11-25T16:33:14.616Z,62.47
2018-11-25T16:35:42.959Z,39.87
2018-11-25T16:38:10.738Z,40.07
2018-11-25T16:40:39.984Z,40.40
2018-11-25T16:43:08.593Z,41.43
2018-11-25T16:45:36.970Z,45.87
2018-11-25T16:48:05.290Z,41.60
2018-11-25T16:50:33.918Z,38.77
2018-11-25T16:53:01.666Z,38.73
2018-11-25T16:55:30.015Z,41.17
2018-11-25T16:57:59.048Z,41.67
2018-11-25T17:00:27.484Z,43.73
2018-11-25T17:02:55.905Z,45.93
2018-11-25T17:05:23.700Z,49.30
2018-11-25T17:07:52.049Z,49.50
2018-11-25T17:10:21.007Z,46.30
2018-11-25T17:12:48.779Z,106.43
2018-11-25T17:15:17.706Z,49.80
2018-11-25T17:17:46.403Z,39.87
2018-11-25T17:20:14.150Z,41.00
2018-11-25T17:22:43.057Z,42.73
2018-11-25T17:25:11.943Z,37.47
2018-11-25T17:27:39.764Z,36.53
2018-11-25T17:30:08.059Z,33.80
2018-11-25T17:32:36.411Z,34.73
2018-11-25T17:35:04.772Z,29.00
2018-11-25T17:37:33.133Z,29.37
2018-11-25T17:40:01.568Z,25.50
2018-11-25T17:42:29.914Z,33.70
2018-11-25T17:44:59.256Z,34.93
2018-11-25T17:47:27.911Z,51.60
2018-11-25T17:49:56.612Z,36.50
2018-11-25T17:52:24.953Z,36.87
2018-11-25T17:54:52.713Z,35.90
2018-11-25T17:57:21.631Z,33.23
2018-11-25T17:59:50.012Z,31.47
2018-11-25T18:02:18.296Z,29.87
2018-11-25T18:04:46.041Z,38.97
2018-11-25T18:07:14.437Z,37.10
2018-11-25T18:09:42.770Z,36.83
2018-11-25T18:12:11.727Z,36.50
2018-11-25T18:14:40.260Z,28.30
2018-11-25T18:17:08.210Z,28.83
2018-11-25T18:19:37.158Z,40.73
2018-11-25T18:22:05.738Z,77.17
2018-11-25T18:24:34.005Z,29.30
2018-11-25T18:27:02.471Z,27.37
2018-11-25T18:29:31.057Z,25.57
2018-11-25T18:31:58.856Z,26.10
2018-11-25T18:34:27.812Z,34.47
2018-11-25T18:36:56.268Z,32.43
2018-11-25T18:39:24.644Z,31.63
2018-11-25T18:41:53.282Z,32.10
2018-11-25T18:44:21.326Z,36.37
2018-11-25T18:46:49.656Z,34.47
2018-11-25T18:49:18.051Z,38.57
2018-11-25T18:51:46.992Z,35.23
2018-11-25T18:54:15.326Z,42.77
2018-11-25T18:56:43.873Z,41.97
2018-11-25T18:59:12.652Z,30.13
2018-11-25T19:01:41.272Z,27.77
2018-11-25T19:04:10.549Z,29.40
2018-11-25T19:06:39.060Z,26.43
2018-11-25T19:09:07.484Z,19.23
2018-11-25T19:11:37.353Z,10.63
2018-11-25T19:14:05.095Z,11.87
2018-11-25T19:16:34.176Z,10.07
2018-11-25T19:19:02.468Z,9.80
2018-11-25T19:21:30.245Z,14.20
2018-11-25T19:23:59.120Z,14.63
2018-11-25T19:26:26.920Z,12.90
2018-11-25T19:28:55.788Z,11.27
2018-11-25T19:31:24.133Z,12.67
2018-11-25T19:33:52.498Z,13.03
2018-11-25T19:36:20.827Z,14.33
2018-11-25T19:38:48.577Z,14.40
2018-11-25T19:41:17.498Z,14.20
2018-11-25T19:43:46.759Z,15.13
2018-11-25T19:46:13.620Z,56.43
2018-11-25T19:48:41.965Z,41.40
2018-11-25T19:51:17.270Z,17.87
2018-11-25T19:53:38.766Z,17.43
2018-11-25T19:56:07.098Z,17.43
2018-11-25T19:58:36.010Z,19.17
2018-11-25T20:01:04.348Z,20.03
2018-11-25T20:03:32.737Z,20.97
2018-11-25T20:06:01.061Z,28.10
2018-11-25T20:08:29.390Z,22.77
2018-11-25T20:10:58.040Z,23.37
2018-11-25T20:13:26.103Z,22.93
2018-11-25T20:15:55.090Z,18.87
2018-11-25T20:18:23.388Z,18.37
2018-11-25T20:20:51.752Z,18.23
2018-11-25T20:23:20.335Z,17.37
2018-11-25T20:25:48.694Z,17.50
2018-11-25T20:28:17.626Z,18.53
2018-11-25T20:30:45.954Z,16.37
2018-11-25T20:33:15.550Z,17.83
2018-11-25T20:35:44.525Z,17.33
2018-11-25T20:38:12.204Z,17.73
2018-11-25T20:40:40.539Z,17.30
2018-11-25T20:43:08.292Z,16.17
2018-11-25T20:45:39.014Z,17.00
2018-11-25T20:48:05.861Z,18.67
2018-11-25T20:50:33.610Z,25.57
2018-11-25T20:53:07.416Z,19.60
2018-11-25T20:55:35.144Z,19.23
2018-11-25T20:58:03.199Z,32.50
2018-11-25T21:00:32.510Z,29.40
2018-11-25T21:03:00.252Z,18.87
2018-11-25T21:05:29.181Z,17.67
2018-11-25T21:07:57.587Z,18.20
2018-11-25T21:10:26.168Z,18.53
2018-11-25T21:12:53.706Z,18.10
2018-11-25T21:15:22.765Z,17.67
2018-11-25T21:17:51.861Z,17.27
2018-11-25T21:20:20.240Z,16.03
2018-11-25T21:22:49.268Z,16.00
2018-11-25T21:25:17.641Z,14.60
2018-11-25T21:27:46.496Z,15.60
2018-11-25T21:30:14.830Z,15.67
2018-11-25T21:32:43.993Z,15.47
2018-11-25T21:35:14.455Z,16.57
2018-11-25T21:37:42.976Z,16.43
2018-11-25T21:40:11.292Z,17.27
2018-11-25T21:42:39.673Z,15.53
2018-11-25T21:45:07.413Z,53.43
2018-11-25T21:47:36.324Z,34.77
2018-11-25T21:50:04.858Z,17.13
2018-11-25T21:52:32.587Z,18.70
2018-11-25T21:55:00.962Z,16.83
2018-11-25T21:57:29.875Z,17.10
2018-11-25T21:59:58.314Z,17.47
2018-11-25T22:02:26.053Z,16.10
2018-11-25T22:04:54.980Z,16.67
2018-11-25T22:07:23.324Z,16.70
2018-11-25T22:09:51.728Z,15.33
2018-11-25T22:12:20.531Z,15.67
2018-11-25T22:14:48.864Z,16.27
2018-11-25T22:17:17.355Z,16.73
2018-11-25T22:19:45.157Z,15.97
2018-11-25T22:22:14.056Z,15.47
2018-11-25T22:24:41.852Z,14.87
2018-11-25T22:27:10.776Z,14.37
2018-11-25T22:29:38.517Z,15.60
2018-11-25T22:32:07.422Z,13.90
2018-11-25T22:34:35.972Z,14.80
2018-11-25T22:37:04.311Z,13.90
2018-11-25T22:39:31.911Z,14.10
2018-11-25T22:42:00.765Z,14.60
2018-11-25T22:44:28.513Z,13.57
2018-11-25T22:46:56.817Z,13.60
2018-11-25T22:49:25.729Z,14.00
2018-11-25T22:51:54.447Z,13.40
2018-11-25T22:54:22.908Z,13.97
2018-11-25T22:56:50.718Z,13.47
2018-11-25T22:59:19.801Z,16.40
2018-11-25T23:01:47.549Z,49.23
2018-11-25T23:04:17.809Z,14.93
2018-11-25T23:06:50.302Z,14.17
2018-11-25T23:09:19.279Z,13.07
2018-11-25T23:11:47.561Z,13.10
2018-11-25T23:14:15.312Z,13.97
2018-11-25T23:16:44.239Z,13.27
2018-11-25T23:19:12.274Z,13.80
2018-11-25T23:21:41.263Z,13.70
2018-11-25T23:24:10.163Z,12.60
2018-11-25T23:26:38.489Z,16.13
2018-11-25T23:29:06.812Z,22.53
2018-11-25T23:31:34.584Z,16.80
2018-11-25T23:34:03.475Z,11.97
2018-11-25T23:36:32.026Z,12.93
2018-11-25T23:39:00.114Z,11.73
2018-11-25T23:41:28.443Z,12.07
2018-11-25T23:43:56.766Z,11.73
2018-11-25T23:46:25.099Z,11.60
2018-11-25T23:48:52.867Z,11.53
2018-11-25T23:51:21.268Z,11.50
2018-11-25T23:53:49.607Z,11.70
2018-11-25T23:56:18.290Z,10.67
2018-11-25T23:58:47.038Z,11.07
